Time;durP1;ratioP1;P1;durP2;ratioP2;P2;SDS_P1;SDS_P2;PMS_P1;PMS_P2;Temp;Humidity;BMP_temperature;BMP_pressure;BME280_temperature;BME280_humidity;BME280_pressure;Samples;Min_cycle;Max_cycle;Signal;HPM_P1;HPM_P2
2022/09/08 00:01:13;;;;;;;8.40;2.65;;;;;;;17.69;100.00;100823.91;5039700;28;20029;-69
2022/09/08 00:03:40;;;;;;;5.15;2.55;;;;;;;17.66;100.00;100807.97;5033876;28;20051;-70
2022/09/08 00:06:11;;;;;;;7.50;3.05;;;;;;;17.67;100.00;100809.72;5043868;28;20025;-69
2022/09/08 00:08:37;;;;;;;8.88;3.08;;;;;;;17.65;100.00;100812.41;5033319;28;20120;-70
2022/09/08 00:11:05;;;;;;;8.30;3.80;;;;;;;17.75;100.00;100810.50;5033446;28;20535;-70
2022/09/08 00:13:33;;;;;;;11.52;3.63;;;;;;;17.75;100.00;100810.50;5047380;28;20492;-70
2022/09/08 00:16:02;;;;;;;10.55;3.80;;;;;;;17.80;100.00;100808.66;5036351;28;20035;-70
2022/09/08 00:18:28;;;;;;;9.82;3.78;;;;;;;17.83;100.00;100811.28;5033272;28;20036;-70
2022/09/08 00:20:53;;;;;;;8.73;2.80;;;;;;;17.78;100.00;100807.78;5041043;28;20464;-71
2022/09/08 00:23:18;;;;;;;11.55;3.55;;;;;;;17.76;100.00;100803.41;5035015;28;20022;-71
2022/09/08 00:25:45;;;;;;;12.95;3.78;;;;;;;17.78;100.00;100796.28;5033205;28;20041;-71
2022/09/08 00:28:12;;;;;;;11.85;3.40;;;;;;;17.78;100.00;100797.16;5033229;28;20033;-71
2022/09/08 00:30:37;;;;;;;8.38;3.40;;;;;;;17.78;100.00;100791.81;5036948;28;20499;-70
2022/09/08 00:33:03;;;;;;;9.50;3.88;;;;;;;17.79;100.00;100790.06;5036410;28;20124;-70
2022/09/08 00:35:28;;;;;;;14.23;4.47;;;;;;;17.79;100.00;100788.25;5036306;28;20397;-71
2022/09/08 00:37:54;;;;;;;11.35;4.90;;;;;;;17.84;100.00;100786.44;5033229;28;20059;-70
2022/09/08 00:40:22;;;;;;;13.48;4.97;;;;;;;17.83;100.00;100789.13;5036132;28;20040;-70
2022/09/08 00:42:56;;;;;;;8.32;4.63;;;;;;;17.79;100.00;100777.63;5033148;28;20051;-71
2022/09/08 00:45:25;;;;;;;9.05;4.43;;;;;;;17.79;100.00;100777.63;5032631;28;20079;-71
2022/09/08 00:47:58;;;;;;;11.13;4.32;;;;;;;17.78;100.00;100778.50;5047143;28;20053;-70
2022/09/08 00:50:27;;;;;;;15.88;5.53;;;;;;;17.79;100.00;100772.28;5040296;28;20147;-70
2022/09/08 00:53:00;;;;;;;13.85;6.18;;;;;;;17.84;100.00;100761.59;5033801;28;20508;-71
2022/09/08 00:55:31;;;;;;;;;;;;;;;17.81;100.00;100762.53;5033065;28;20466;-70
2022/09/08 00:57:56;;;;;;;14.27;7.28;;;;;;;17.86;100.00;100763.34;5032879;28;19916;-71
2022/09/08 01:00:21;;;;;;;16.83;7.35;;;;;;;17.87;100.00;100761.53;5042346;28;20021;-71
2022/09/08 01:02:47;;;;;;;13.13;7.03;;;;;;;17.86;100.00;100758.00;5032492;28;20033;-71
2022/09/08 01:05:17;;;;;;;19.60;7.63;;;;;;;17.87;100.00;100753.56;5031976;28;20035;-71
2022/09/08 01:13:56;;;;;;;22.98;8.18;;;;;;;17.84;100.00;100749.16;5033170;28;20555;-70
2022/09/08 01:16:21;;;;;;;20.55;7.60;;;;;;;17.81;100.00;100754.53;5036630;28;20055;-70
2022/09/08 01:18:46;;;;;;;20.50;8.32;;;;;;;17.79;100.00;100761.66;5046792;28;20029;-70
2022/09/08 01:21:50;;;;;;;17.63;7.95;;;;;;;17.78;100.00;100762.53;5032393;28;20037;-71
2022/09/08 01:24:34;;;;;;;23.05;9.00;;;;;;;17.73;100.00;100753.78;5036192;28;20083;-71
2022/09/08 01:27:21;;;;;;;20.08;8.23;;;;;;;17.74;100.00;100762.63;5032172;28;20032;-71
2022/09/08 01:29:48;;;;;;;19.48;8.75;;;;;;;17.75;100.00;100759.06;5035396;28;20377;-70
2022/09/08 01:32:14;;;;;;;14.18;7.30;;;;;;;17.75;100.00;100754.59;5032381;28;20025;-71
2022/09/08 01:34:41;;;;;;;15.98;8.23;;;;;;;17.78;100.00;100757.22;5036748;28;20059;-69
2022/09/08 01:37:07;;;;;;;17.80;7.53;;;;;;;17.81;100.00;100759.84;5045478;28;20024;-69
2022/09/08 01:39:32;;;;;;;15.93;6.93;;;;;;;17.80;100.00;100750.09;5032814;28;20041;-71
2022/09/08 01:41:58;;;;;;;17.27;7.80;;;;;;;17.82;100.00;100750.06;5032774;28;20017;-70
2022/09/08 01:44:25;;;;;;;13.50;7.50;;;;;;;17.81;100.00;100748.31;5033091;28;20021;-70
2022/09/08 01:46:50;;;;;;;18.73;7.78;;;;;;;17.85;100.00;100753.59;5034392;28;20040;-70
2022/09/08 01:49:16;;;;;;;17.50;7.93;;;;;;;17.85;100.00;100753.59;5044446;28;20030;-70
2022/09/08 01:51:41;;;;;;;18.25;7.78;;;;;;;17.88;100.00;100755.31;5036239;28;20543;-70
2022/09/08 01:54:06;;;;;;;17.30;7.63;;;;;;;17.89;100.00;100751.75;5041095;28;20458;-70
2022/09/08 01:56:32;;;;;;;18.65;9.15;;;;;;;17.89;100.00;100751.75;5040786;28;20104;-70
2022/09/08 01:58:58;;;;;;;20.63;9.73;;;;;;;17.89;100.00;100757.06;5035957;28;20045;-70
2022/09/08 02:01:23;;;;;;;19.55;9.23;;;;;;;17.85;100.00;100745.59;5040843;28;20025;-70
2022/09/08 02:03:48;;;;;;;21.13;7.93;;;;;;;17.86;100.00;100752.69;5042659;28;20460;-70
2022/09/08 02:06:14;;;;;;;18.92;9.13;;;;;;;17.87;100.00;100743.78;5035521;28;20029;-71
2022/09/08 02:08:39;;;;;;;15.73;8.80;;;;;;;17.91;100.00;100749.06;5034951;28;20484;-70
2022/09/08 02:11:05;;;;;;;19.15;9.82;;;;;;;17.90;100.00;100745.50;5036084;28;20108;-71
2022/09/08 02:13:30;;;;;;;17.55;9.63;;;;;;;17.92;100.00;100746.41;5038048;28;20033;-70
2022/09/08 02:16:02;;;;;;;16.77;9.40;;;;;;;17.92;100.00;100741.09;5052220;28;20469;-71
2022/09/08 02:18:31;;;;;;;20.95;9.77;;;;;;;17.93;100.00;100742.84;5048570;28;20056;-70
2022/09/08 02:21:08;;;;;;;15.35;8.65;;;;;;;17.94;100.00;100741.94;5034925;28;20022;-71
2022/09/08 02:23:35;;;;;;;17.02;8.93;;;;;;;17.92;100.00;100740.19;5035759;28;20029;-70
2022/09/08 02:26:01;;;;;;;20.35;8.95;;;;;;;17.93;100.00;100739.31;5039454;28;20101;-71
2022/09/08 02:28:26;;;;;;;17.55;8.32;;;;;;;17.92;100.00;100733.09;5044574;28;20508;-71
2022/09/08 02:30:56;;;;;;;17.42;8.43;;;;;;;17.92;100.00;100729.53;5043660;28;20095;-70
2022/09/08 02:33:21;;;;;;;20.95;10.10;;;;;;;17.90;100.00;100734.88;5053409;28;20029;-71
2022/09/08 02:35:47;;;;;;;19.85;8.13;;;;;;;17.91;100.00;100733.09;5036854;28;20033;-70
2022/09/08 02:38:12;;;;;;;15.07;8.38;;;;;;;17.91;100.00;100730.44;5034682;28;20381;-70
2022/09/08 02:40:38;;;;;;;20.30;9.02;;;;;;;17.89;100.00;100732.22;5035966;28;20017;-71
2022/09/08 02:43:04;;;;;;;17.50;8.02;;;;;;;17.91;100.00;100727.78;5035081;28;20021;-72
2022/09/08 02:45:29;;;;;;;16.25;8.25;;;;;;;17.92;100.00;100727.78;5036198;28;20542;-70
2022/09/08 02:47:54;;;;;;;17.85;8.48;;;;;;;17.93;100.00;100715.34;5053500;28;20048;-71
2022/09/08 02:50:20;;;;;;;16.30;9.18;;;;;;;17.94;100.00;100715.31;5043252;28;20207;-71
2022/09/08 02:52:45;;;;;;;27.77;9.00;;;;;;;17.96;100.00;100724.16;5040789;28;20040;-71
2022/09/08 02:55:11;;;;;;;18.70;9.25;;;;;;;17.93;100.00;100720.66;5036268;28;20022;-72
2022/09/08 02:57:36;;;;;;;22.85;9.40;;;;;;;17.91;100.00;100720.66;5034809;28;20033;-71
2022/09/08 03:00:03;;;;;;;18.52;8.57;;;;;;;17.86;100.00;100725.16;5034056;28;20112;-71
2022/09/08 03:02:29;;;;;;;15.57;6.72;;;;;;;17.75;100.00;100719.16;5050851;28;20017;-71
2022/09/08 03:04:54;;;;;;;13.50;5.30;;;;;;;17.69;100.00;100713.00;5045704;28;20032;-70
2022/09/08 03:07:19;;;;;;;11.65;4.72;;;;;;;17.61;100.00;100714.03;5044723;28;20049;-70
2022/09/08 03:09:45;;;;;;;14.57;4.72;;;;;;;17.53;100.00;100701.72;5044622;28;20037;-71
2022/09/08 03:12:11;;;;;;;13.73;4.28;;;;;;;17.47;100.00;100701.81;5039817;28;20106;-70
2022/09/08 03:14:36;;;;;;;11.27;4.93;;;;;;;17.46;100.00;100700.03;5041319;28;20107;-71
2022/09/08 03:17:02;;;;;;;14.98;3.97;;;;;;;17.39;100.00;100702.81;5050508;28;20047;-71
2022/09/08 03:19:27;;;;;;;10.18;4.10;;;;;;;17.37;100.00;100705.50;5042658;28;20378;-71
2022/09/08 03:21:53;;;;;;;14.68;4.10;;;;;;;17.36;100.00;100703.72;5034650;28;20040;-72
2022/09/08 03:24:18;;;;;;;15.23;4.82;;;;;;;17.34;100.00;100705.53;5036069;28;20040;-71
2022/09/08 03:26:43;;;;;;;8.95;3.85;;;;;;;17.31;100.00;100706.47;5034466;28;20471;-71
2022/09/08 03:29:09;;;;;;;15.10;3.53;;;;;;;17.28;100.00;100713.59;5038974;28;20025;-71
2022/09/08 03:31:35;;;;;;;13.20;3.47;;;;;;;17.21;100.00;100709.25;5051787;28;20166;-71
2022/09/08 03:34:01;;;;;;;12.32;3.33;;;;;;;17.22;100.00;100706.56;5059874;28;20049;-72
2022/09/08 03:36:26;;;;;;;9.00;3.28;;;;;;;17.22;100.00;100703.03;5054032;28;20098;-71
2022/09/08 03:38:51;;;;;;;14.13;3.80;;;;;;;17.14;100.00;100696.03;5051274;28;20025;-71
2022/09/08 03:41:17;;;;;;;12.10;3.10;;;;;;;17.12;100.00;100695.19;5042908;28;20595;-71
2022/09/08 03:43:48;;;;;;;14.13;3.83;;;;;;;17.05;100.00;100692.63;5032603;28;20025;-70
2022/09/08 03:46:14;;;;;;;9.43;3.40;;;;;;;17.01;100.00;100694.41;5049465;28;20029;-71
2022/09/08 03:48:40;;;;;;;15.48;3.08;;;;;;;17.00;100.00;100701.53;5048105;28;20055;-71
2022/09/08 03:51:15;;;;;;;9.85;2.78;;;;;;;16.97;100.00;100704.22;5033896;28;20160;-71
2022/09/08 03:53:42;;;;;;;12.27;3.47;;;;;;;16.92;100.00;100697.22;5034028;28;20033;-71
2022/09/08 03:56:08;;;;;;;9.95;3.65;;;;;;;16.97;100.00;100703.34;5049789;28;20029;-71
2022/09/08 03:58:34;;;;;;;8.93;3.15;;;;;;;16.95;100.00;100698.03;5045283;28;20032;-71
2022/09/08 04:01:00;;;;;;;6.88;3.20;;;;;;;16.96;100.00;100696.28;5036472;28;20555;-71
2022/09/08 04:03:26;;;;;;;15.43;3.53;;;;;;;16.96;100.00;100694.50;5033956;28;20542;-71
2022/09/08 04:05:52;;;;;;;5.55;2.72;;;;;;;16.95;100.00;100700.69;5033407;28;20029;-71
2022/09/08 04:08:17;;;;;;;11.70;3.70;;;;;;;16.97;100.00;100696.25;5034059;28;20067;-71
2022/09/08 04:10:43;;;;;;;6.43;3.22;;;;;;;16.94;100.00;100706.94;5047574;28;20088;-71
2022/09/08 04:13:08;;;;;;;10.13;3.22;;;;;;;16.93;100.00;100709.59;5033155;28;20147;-71
2022/09/08 04:15:33;;;;;;;16.13;3.42;;;;;;;16.93;100.00;100707.81;5033093;28;20025;-70
2022/09/08 04:17:59;;;;;;;7.68;3.50;;;;;;;16.95;100.00;100707.81;5033935;28;20029;-71
2022/09/08 04:20:24;;;;;;;8.15;3.65;;;;;;;16.96;100.00;100714.88;5044061;28;20024;-71
2022/09/08 04:22:51;;;;;;;11.55;3.83;;;;;;;16.95;100.00;100700.69;5032853;28;20539;-71
2022/09/08 04:25:17;;;;;;;7.80;4.00;;;;;;;16.97;100.00;100700.69;5041957;28;20024;-71
2022/09/08 04:27:42;;;;;;;13.77;4.40;;;;;;;16.96;100.00;100702.47;5053151;28;20036;-71
2022/09/08 04:30:08;;;;;;;10.43;5.03;;;;;;;16.96;100.00;100696.28;5050841;28;20033;-71
2022/09/08 04:32:34;;;;;;;19.45;5.50;;;;;;;16.93;100.00;100683.00;5044879;28;20040;-71
2022/09/08 04:35:00;;;;;;;15.60;4.43;;;;;;;16.90;100.00;100685.72;5037606;28;20029;-71
2022/09/08 04:37:25;;;;;;;15.70;4.70;;;;;;;16.86;100.00;100684.81;5040024;28;20083;-71
2022/09/08 04:39:51;;;;;;;13.95;4.60;;;;;;;16.86;100.00;100683.06;5049761;28;20035;-70
2022/09/08 04:42:17;;;;;;;23.75;5.63;;;;;;;16.84;100.00;100690.16;5034614;28;20030;-70
2022/09/08 04:44:42;;;;;;;15.32;4.72;;;;;;;16.81;100.00;100684.91;5032247;28;20060;-72
2022/09/08 04:47:07;;;;;;;16.70;5.15;;;;;;;16.78;100.00;100684.03;5043944;28;20111;-71
2022/09/08 04:49:33;;;;;;;13.68;5.55;;;;;;;16.80;100.00;100683.13;5052425;28;20064;-70
2022/09/08 04:51:58;;;;;;;12.00;5.40;;;;;;;16.76;100.00;100680.53;5049063;28;20082;-70
2022/09/08 04:54:24;;;;;;;19.15;5.43;;;;;;;16.79;100.00;100681.38;5049531;28;20100;-70
2022/09/08 04:56:49;;;;;;;11.23;5.20;;;;;;;16.78;100.00;100679.63;5047118;28;20417;-71
2022/09/08 04:59:15;;;;;;;18.77;6.43;;;;;;;16.83;100.00;100696.41;5039486;28;20024;-71
2022/09/08 05:01:40;;;;;;;15.00;5.93;;;;;;;16.83;100.00;100693.75;5042051;28;20383;-72
2022/09/08 05:04:06;;;;;;;13.23;5.93;;;;;;;16.79;100.00;100692.03;5042314;28;20045;-71
2022/09/08 05:06:33;;;;;;;17.10;6.07;;;;;;;16.80;100.00;100691.09;5044974;28;20017;-71
2022/09/08 05:09:00;;;;;;;15.52;5.90;;;;;;;16.81;100.00;100692.88;5035133;28;20025;-71
2022/09/08 05:11:28;;;;;;;14.35;5.60;;;;;;;16.79;100.00;100691.13;5042009;28;20036;-69
2022/09/08 05:13:55;;;;;;;20.42;6.10;;;;;;;16.78;100.00;100690.25;5046790;28;20500;-69
2022/09/08 05:16:24;;;;;;;12.73;5.55;;;;;;;16.76;100.00;100692.03;5033002;28;20033;-69
2022/09/08 05:18:52;;;;;;;13.98;5.80;;;;;;;16.79;100.00;100693.78;5032838;28;20029;-70
2022/09/08 05:21:19;;;;;;;13.60;5.97;;;;;;;16.75;100.00;100695.56;5041599;28;20018;-69
2022/09/08 05:23:45;;;;;;;9.27;4.88;;;;;;;16.77;100.00;100693.81;5043672;28;20470;-70
2022/09/08 05:26:13;;;;;;;12.43;5.38;;;;;;;16.66;100.00;100698.38;5038715;28;20030;-71
2022/09/08 05:28:40;;;;;;;10.82;5.00;;;;;;;16.65;100.00;100699.25;5044633;28;20021;-71
2022/09/08 05:31:07;;;;;;;11.05;4.68;;;;;;;16.56;100.00;100699.34;5048540;28;20438;-70
2022/09/08 05:33:33;;;;;;;10.15;4.88;;;;;;;16.49;100.00;100694.13;5052141;28;20025;-71
2022/09/08 05:35:59;;;;;;;14.27;5.65;;;;;;;16.48;100.00;100689.69;5063783;28;20070;-70
2022/09/08 05:38:24;;;;;;;12.68;5.50;;;;;;;16.45;100.00;100689.69;5053401;28;20021;-70
2022/09/08 05:40:50;;;;;;;7.03;5.18;;;;;;;16.48;100.00;100688.78;5049788;28;20457;-71
2022/09/08 05:43:16;;;;;;;15.55;5.53;;;;;;;16.46;100.00;100688.81;5036488;28;20036;-70
2022/09/08 05:45:45;;;;;;;10.82;4.68;;;;;;;16.37;100.00;100683.59;5036625;28;20036;-71
2022/09/08 05:48:11;;;;;;;8.52;4.50;;;;;;;16.36;100.00;100681.84;5036639;28;20033;-69
2022/09/08 05:50:36;;;;;;;12.73;4.85;;;;;;;16.31;100.00;100688.97;5037618;28;20066;-71
2022/09/08 05:53:02;;;;;;;9.35;4.00;;;;;;;16.29;100.00;100674.81;5040770;28;20056;-71
2022/09/08 05:55:28;;;;;;;7.53;4.20;;;;;;;16.29;100.00;100680.13;5042283;28;20108;-71
2022/09/08 05:57:55;;;;;;;8.32;4.47;;;;;;;16.25;100.00;100683.72;5047022;28;20136;-71
2022/09/08 06:00:21;;;;;;;10.07;5.30;;;;;;;16.20;100.00;100686.44;5040213;28;20021;-70
2022/09/08 06:02:51;;;;;;;11.35;5.63;;;;;;;16.17;100.00;100682.03;5053976;28;20036;-70
2022/09/08 06:05:18;;;;;;;10.65;6.03;;;;;;;16.22;100.00;100684.63;5048626;28;20580;-71
2022/09/08 06:07:43;;;;;;;9.63;5.00;;;;;;;16.24;100.00;100679.31;5043479;28;20024;-71
2022/09/08 06:10:09;;;;;;;11.63;6.05;;;;;;;16.28;100.00;100686.38;5053073;28;20029;-70
2022/09/08 06:12:34;;;;;;;11.27;5.90;;;;;;;16.30;100.00;100687.22;5067586;28;20047;-70
2022/09/08 06:15:00;;;;;;;10.30;5.68;;;;;;;16.30;100.00;100684.56;5035682;28;20428;-70
2022/09/08 06:17:25;;;;;;;10.13;6.00;;;;;;;16.31;100.00;100675.69;5036954;28;20040;-71
2022/09/08 06:19:50;;;;;;;11.23;5.47;;;;;;;16.33;100.00;100672.13;5039316;28;20036;-68
2022/09/08 06:22:16;;;;;;;11.70;6.70;;;;;;;16.37;100.00;100678.28;5047908;28;20102;-67
2022/09/08 06:24:41;;;;;;;13.02;6.47;;;;;;;16.37;100.00;100682.72;5055090;28;20104;-70
2022/09/08 06:27:30;;;;;;;13.43;7.22;;;;;;;16.39;100.00;100676.50;5045597;28;20025;-72
2022/09/08 06:30:12;;;;;;;10.40;6.45;;;;;;;16.38;100.00;100682.69;5040975;28;20036;-71
2022/09/08 06:32:45;;;;;;;11.20;6.72;;;;;;;16.40;100.00;100682.69;5036164;28;20036;-71
2022/09/08 06:35:27;;;;;;;11.05;6.28;;;;;;;16.38;100.00;100682.69;5038304;28;20583;-70
2022/09/08 06:38:17;;;;;;;14.65;6.32;;;;;;;16.41;100.00;100685.31;5058053;28;20427;-71
2022/09/08 06:40:49;;;;;;;16.52;6.90;;;;;;;16.42;100.00;100680.91;5040813;28;20025;-70
2022/09/08 06:43:35;;;;;;;9.25;7.30;;;;;;;16.41;100.00;100695.06;5047809;28;20468;-73
2022/09/08 06:46:06;;;;;;;13.57;7.05;;;;;;;16.44;100.00;100687.97;5043674;28;20396;-72
2022/09/08 06:48:34;;;;;;;9.45;6.75;;;;;;;16.47;100.00;100690.59;5036770;28;20082;-72
2022/09/08 06:51:13;;;;;;;16.13;6.95;;;;;;;16.48;100.00;100689.69;5035207;28;20045;-73
2022/09/08 06:53:43;;;;;;;10.48;5.97;;;;;;;16.52;100.00;100693.19;5052631;28;20449;-72
2022/09/08 06:56:35;;;;;;;10.07;6.38;;;;;;;16.50;100.00;100682.56;5049399;28;20029;-72
2022/09/08 06:59:07;;;;;;;10.18;7.38;;;;;;;16.49;100.00;100683.50;5046353;28;20045;-72
2022/09/08 07:01:56;;;;;;;9.25;7.05;;;;;;;16.56;100.00;100683.41;5054533;28;20100;-73
2022/09/08 07:04:36;;;;;;;11.38;7.88;;;;;;;16.61;100.00;100686.91;5054800;28;20033;-73
2022/09/08 07:07:33;;;;;;;18.63;9.38;;;;;;;16.61;100.00;100681.59;5044592;28;20095;-72
2022/09/08 07:10:35;;;;;;;21.13;10.45;;;;;;;16.64;100.00;100682.44;5046922;28;20025;-72
2022/09/08 07:13:48;;;;;;;15.20;9.68;;;;;;;16.69;100.00;100685.03;5053475;28;20476;-72
2022/09/08 07:16:20;;;;;;;21.58;11.57;;;;;;;16.70;100.00;100684.16;5032324;28;20033;-72
2022/09/08 07:18:51;;;;;;;22.98;11.75;;;;;;;16.75;100.00;100692.91;5030862;28;20128;-72
2022/09/08 07:21:16;;;;;;;18.73;11.55;;;;;;;16.80;100.00;100699.06;5031228;28;20116;-72
2022/09/08 07:23:44;;;;;;;22.00;12.57;;;;;;;16.80;100.00;100690.22;5054644;28;20032;-72
2022/09/08 07:26:20;;;;;;;18.17;12.55;;;;;;;16.85;100.00;100691.06;5054256;28;20030;-72
2022/09/08 07:28:49;;;;;;;18.80;12.15;;;;;;;16.80;100.00;100685.78;5053458;28;20036;-72
2022/09/08 07:31:23;;;;;;;18.40;12.90;;;;;;;16.88;100.00;100690.16;5044192;28;20349;-72
2022/09/08 07:34:02;;;;;;;19.27;11.85;;;;;;;16.95;100.00;100689.19;5054590;28;20025;-72
2022/09/08 07:36:36;;;;;;;21.52;13.32;;;;;;;16.97;100.00;100690.03;5054687;28;20380;-72
2022/09/08 07:39:11;;;;;;;22.65;13.38;;;;;;;16.98;100.00;100689.16;5040982;28;20481;-71
2022/09/08 07:41:43;;;;;;;21.23;12.93;;;;;;;16.97;100.00;100690.03;5044732;28;20120;-72
2022/09/08 07:44:14;;;;;;;22.23;13.15;;;;;;;17.04;100.00;100691.75;5050415;28;20096;-71
2022/09/08 07:46:52;;;;;;;19.90;13.68;;;;;;;17.01;100.00;100686.44;5049469;28;20029;-71
2022/09/08 07:49:44;;;;;;;16.95;12.63;;;;;;;17.09;100.00;100684.59;5038125;28;20075;-71
2022/09/08 07:52:09;;;;;;;18.55;13.07;;;;;;;17.02;100.00;100680.25;5037079;28;20090;-71
2022/09/08 07:55:17;;;;;;;22.02;12.82;;;;;;;17.14;100.00;100688.06;5052075;28;20460;-71
2022/09/08 07:58:00;;;;;;;19.23;13.93;;;;;;;17.19;100.00;100696.84;5040060;28;20037;-71
2022/09/08 08:00:43;;;;;;;18.67;12.43;;;;;;;17.28;100.00;100690.56;5053217;28;20029;-70
2022/09/08 08:03:24;;;;;;;23.25;13.80;;;;;;;17.34;100.00;100702.88;5039473;28;20052;-70
2022/09/08 08:06:19;;;;;;;20.52;13.48;;;;;;;17.32;100.00;100686.03;5052283;28;20413;-70
2022/09/08 08:09:06;;;;;;;21.38;13.80;;;;;;;17.42;100.00;100692.16;5042002;28;20428;-71
2022/09/08 08:11:36;;;;;;;24.25;14.55;;;;;;;17.45;100.00;100700.94;5050612;28;20037;-71
2022/09/08 08:14:04;;;;;;;21.30;13.27;;;;;;;17.42;100.00;100692.16;5052223;28;20111;-72
2022/09/08 08:16:42;;;;;;;21.70;11.85;;;;;;;17.25;100.00;100710.97;5052393;28;20032;-70
2022/09/08 08:19:08;;;;;;;16.05;11.95;;;;;;;17.30;100.00;100706.47;5052255;28;20069;-71
2022/09/08 08:21:46;;;;;;;19.00;10.75;;;;;;;17.19;100.00;100718.13;5047711;28;20014;-70
2022/09/08 08:24:18;;;;;;;14.40;10.98;;;;;;;17.25;100.00;100717.16;5041938;28;20520;-70
2022/09/08 08:27:20;;;;;;;16.10;11.15;;;;;;;17.31;100.00;100722.41;5053109;28;20563;-70
2022/09/08 08:30:17;;;;;;;12.30;9.30;;;;;;;17.52;100.00;100712.38;5052898;28;20057;-71
2022/09/08 08:32:52;;;;;;;11.93;9.55;;;;;;;17.64;100.00;100713.97;5036246;28;20051;-71
2022/09/08 08:35:27;;;;;;;13.05;9.18;;;;;;;17.75;100.00;100711.16;5051008;28;20069;-71
2022/09/08 08:37:53;;;;;;;12.73;8.23;;;;;;;17.84;100.00;100719.00;5040990;28;20623;-71
2022/09/08 08:40:50;;;;;;;10.20;7.38;;;;;;;17.91;100.00;100711.81;5052313;28;20028;-70
2022/09/08 08:43:25;;;;;;;8.57;6.38;;;;;;;17.97;100.00;100723.28;5051233;28;20025;-70
2022/09/08 08:46:13;;;;;;;11.00;6.70;;;;;;;18.13;100.00;100717.69;5052537;28;20021;-71
2022/09/08 08:48:57;;;;;;;14.60;6.10;;;;;;;18.29;100.00;100720.97;5052553;28;20047;-71
2022/09/08 08:51:33;;;;;;;;;;;;;;;18.29;100.00;100723.63;5040021;28;20029;-73
2022/09/08 08:54:19;;;;;;;10.35;5.25;;;;;;;18.26;100.00;100732.56;5051726;28;20340;-74
2022/09/08 08:57:07;;;;;;;8.38;5.20;;;;;;;18.16;100.00;100729.19;5052831;28;20051;-74
2022/09/08 09:00:03;;;;;;;6.57;5.43;;;;;;;18.09;100.00;100727.50;5049971;28;20403;-74
2022/09/08 09:02:52;;;;;;;9.57;6.28;;;;;;;17.95;100.00;100732.19;5041089;28;20063;-74
2022/09/08 09:05:20;;;;;;;10.90;7.10;;;;;;;18.00;100.00;100727.63;5053206;28;20070;-74
2022/09/08 09:08:08;;;;;;;10.63;6.50;;;;;;;17.97;100.00;100727.69;5049068;28;20381;-74
2022/09/08 09:11:29;;;;;;;9.07;6.55;;;;;;;18.05;100.00;100723.13;5040437;28;20052;-74
2022/09/08 09:14:15;;;;;;;8.73;6.35;;;;;;;18.25;100.00;100721.94;5006760;28;20100;-73
2022/09/08 09:16:46;;;;;;;10.23;5.78;;;;;;;18.46;100.00;100732.22;5053005;28;20033;-75
2022/09/08 09:19:18;;;;;;;8.18;4.53;;;;;;;18.59;100.00;100730.19;5052857;28;20012;-75
2022/09/08 09:22:13;;;;;;;7.30;4.07;;;;;;;18.68;100.00;100721.16;5053215;28;20040;-75
2022/09/08 09:24:50;;;;;;;7.40;3.72;;;;;;;18.87;100.00;100722.53;5044135;28;20030;-74
2022/09/08 09:27:41;;;;;;;10.40;3.33;;;;;;;18.93;100.00;100728.69;5039329;28;20040;-76
2022/09/08 09:30:06;;;;;;;4.65;2.08;;;;;;;19.11;100.00;100728.31;5036837;28;20021;-74
2022/09/08 09:32:50;;;;;;;10.23;1.95;;;;;;;19.12;100.00;100716.72;5053186;28;20028;-75
2022/09/08 09:35:27;;;;;;;;;;;;;;;19.13;100.00;100718.50;5052907;28;20032;-75
2022/09/08 09:38:28;;;;;;;5.35;1.85;;;;;;;19.37;100.00;100724.22;5043005;28;19920;-76
2022/09/08 09:40:53;;;;;;;3.83;1.50;;;;;;;19.52;100.00;100721.22;5031080;28;20131;-75
2022/09/08 09:43:21;;;;;;;6.13;1.77;;;;;;;19.38;100.00;100723.31;5045811;28;20104;-75
2022/09/08 09:45:55;;;;;;;6.35;1.50;;;;;;;19.21;100.00;100729.88;5038189;28;20286;-74
2022/09/08 09:48:46;;;;;;;6.28;2.20;;;;;;;18.90;100.00;100720.78;5046689;28;20033;-75
2022/09/08 09:51:34;;;;;;;4.88;1.67;;;;;;;18.74;100.00;100721.03;5047758;28;20507;-75
2022/09/08 09:54:38;;;;;;;8.20;2.30;;;;;;;18.90;100.00;100728.78;5051139;28;20025;-76
2022/09/08 09:57:29;;;;;;;11.85;1.70;;;;;;;19.12;100.00;100724.75;5033817;28;20021;-75
2022/09/08 10:00:07;;;;;;;8.60;1.95;;;;;;;19.32;100.00;100740.31;5043008;28;20032;-76
2022/09/08 10:02:56;;;;;;;13.35;2.10;;;;;;;19.54;100.00;100730.03;5034867;28;20025;-75
2022/09/08 10:05:52;;;;;;;5.18;1.70;;;;;;;19.50;100.00;100725.69;5047322;28;20025;-76
2022/09/08 10:09:00;;;;;;;5.82;1.90;;;;;;;19.44;100.00;100714.28;5054344;28;20400;-74
2022/09/08 10:11:55;;;;;;;5.47;2.15;;;;;;;19.41;100.00;100719.69;5047056;28;20481;-75
2022/09/08 10:14:51;;;;;;;5.40;2.00;;;;;;;19.52;100.00;100725.66;5042217;28;20028;-75
2022/09/08 10:18:03;;;;;;;5.22;1.92;;;;;;;19.84;100.00;100732.09;5052001;28;20431;-76
2022/09/08 10:20:31;;;;;;;6.50;2.20;;;;;;;19.79;100.00;100728.59;5044437;28;20033;-75
2022/09/08 10:23:18;;;;;;;5.38;1.65;;;;;;;19.90;100.00;100726.63;5052294;28;20393;-74
2022/09/08 10:26:21;;;;;;;6.40;2.00;;;;;;;19.65;100.00;100736.94;5044775;28;20059;-74
2022/09/08 10:29:21;;;;;;;6.30;1.67;;;;;;;19.54;100.00;100734.53;5047806;28;20029;-73
2022/09/08 10:32:24;;;;;;;4.68;1.50;;;;;;;19.68;100.00;100736.88;5041451;28;20116;-73
2022/09/08 10:35:17;;;;;;;6.60;1.57;;;;;;;19.77;100.00;100730.44;5036690;28;20029;-73
2022/09/08 10:38:19;;;;;;;6.78;1.85;;;;;;;19.93;100.00;100729.19;5042930;28;20275;-73
2022/09/08 10:40:56;;;;;;;8.52;1.90;;;;;;;20.09;100.00;100740.41;5040266;28;20047;-74
2022/09/08 10:43:25;;;;;;;8.13;1.77;;;;;;;19.79;100.00;100732.19;5055079;28;20029;-73
2022/09/08 10:46:08;;;;;;;15.75;2.33;;;;;;;19.72;100.00;100733.22;5047006;28;20393;-74
2022/09/08 10:49:08;;;;;;;4.07;1.45;;;;;;;20.14;100.00;100733.13;5049671;28;20472;-75
2022/09/08 10:51:36;;;;;;;8.57;1.70;;;;;;;20.54;100.00;100742.78;5037919;28;20494;-74
2022/09/08 10:54:17;;;;;;;4.75;1.88;;;;;;;20.59;100.00;100739.13;5043004;28;20112;-74
2022/09/08 10:56:45;;;;;;;5.18;1.50;;;;;;;20.79;100.00;100734.13;5045534;28;20028;-73
2022/09/08 10:59:48;;;;;;;8.10;1.98;;;;;;;20.79;100.00;100734.13;5054490;28;20035;-74
2022/09/08 11:02:32;;;;;;;5.45;1.30;;;;;;;21.00;100.00;100731.81;5043153;28;20029;-75
2022/09/08 11:05:34;;;;;;;4.32;1.52;;;;;;;21.30;100.00;100735.38;5043089;28;20025;-68
2022/09/08 11:08:08;;;;;;;5.00;1.50;;;;;;;21.34;100.00;100730.81;5040736;28;20053;-69
2022/09/08 11:11:00;;;;;;;5.35;1.98;;;;;;;21.53;100.00;100739.19;5054777;28;20029;-69
2022/09/08 11:14:15;;;;;;;7.55;1.50;;;;;;;21.68;100.00;100735.16;5042812;28;20037;-69
2022/09/08 11:16:57;;;;;;;6.13;1.30;;;;;;;21.77;100.00;100740.22;5045690;28;20126;-68
2022/09/08 11:19:50;;;;;;;8.45;3.03;;;;;;;21.97;100.00;100736.88;5044034;28;20469;-69
2022/09/08 11:22:28;;;;;;;6.32;1.65;;;;;;;22.35;100.00;100731.19;5043529;28;20103;-69
2022/09/08 11:25:05;;;;;;;5.68;1.63;;;;;;;22.54;99.87;100729.63;5046835;28;20028;-69
2022/09/08 11:28:04;;;;;;;9.95;1.80;;;;;;;22.62;100.00;100715.09;5046768;28;20082;-70
2022/09/08 11:30:40;;;;;;;5.88;1.33;;;;;;;22.95;95.69;100726.38;5052717;28;20024;-68
2022/09/08 11:33:14;;;;;;;7.75;1.95;;;;;;;22.83;86.65;100714.31;5048710;28;20017;-70
2022/09/08 11:36:06;;;;;;;7.22;1.40;;;;;;;23.37;90.28;100722.16;5051046;28;20473;-69
2022/09/08 11:38:56;;;;;;;8.10;1.73;;;;;;;23.81;88.14;100716.84;5038427;28;20033;-69
2022/09/08 11:41:51;;;;;;;6.35;1.58;;;;;;;23.76;80.91;100721.53;5052629;28;20039;-69
2022/09/08 11:44:46;;;;;;;14.07;2.25;;;;;;;23.34;87.19;100727.66;5051811;28;20082;-69
2022/09/08 11:47:14;;;;;;;5.57;1.65;;;;;;;22.99;92.05;100740.56;5045211;28;20100;-69
2022/09/08 11:50:14;;;;;;;6.70;1.70;;;;;;;22.65;93.26;100718.50;5053565;28;20104;-69